QLA weather

Lasham Airport
Lasham, England, United Kingdom

Public forecast

Using degrees Celsius for public forecast. Weather courtesy of forecast.io.

METAR (pilot weather report)

Closest report is RAF Odiham, 4.4 nm (8.2 km) NE. Retrieved 2019/04/22 18:50 UTC (45 minutes ago):

EGVO 221850Z 16002KT CAVOK 16/07 Q1002 BLU

TAF (pilot weather forecast)

Forecast is more than 12 hours old.

Closest forecast is RAF Odiham, 4.4 nm (8.2 km) NE. Retrieved 2019/04/18 15:03 UTC (4 days ago):

TAF TAF EGVO 181557Z 1815/1903 CNL